sensor_id;sensor_type;location;lat;lon;timestamp;P1;durP1;ratioP1;P2;durP2;ratioP2
54460;SDS011;40371;49.414;11.010;2022-10-04T00:00:07;6.93;;;5.10;;
54460;SDS011;40371;49.414;11.010;2022-10-04T00:02:34;10.70;;;7.80;;
54460;SDS011;40371;49.414;11.010;2022-10-04T00:05:07;12.90;;;9.60;;
54460;SDS011;40371;49.414;11.010;2022-10-04T00:07:43;11.30;;;7.63;;
54460;SDS011;40371;49.414;11.010;2022-10-04T00:10:22;17.53;;;12.30;;
54460;SDS011;40371;49.414;11.010;2022-10-04T00:12:50;12.57;;;8.27;;
54460;SDS011;40371;49.414;11.010;2022-10-04T00:15:23;8.80;;;6.23;;
54460;SDS011;40371;49.414;11.010;2022-10-04T00:17:59;5.50;;;5.00;;
54460;SDS011;40371;49.414;11.010;2022-10-04T00:25:52;5.57;;;5.00;;
54460;SDS011;40371;49.414;11.010;2022-10-04T00:33:36;5.60;;;4.83;;
54460;SDS011;40371;49.414;11.010;2022-10-04T00:36:48;5.83;;;4.87;;
54460;SDS011;40371;49.414;11.010;2022-10-04T00:45:14;5.67;;;4.70;;
54460;SDS011;40371;49.414;11.010;2022-10-04T00:47:25;5.80;;;4.70;;
54460;SDS011;40371;49.414;11.010;2022-10-04T00:50:02;7.00;;;4.87;;
54460;SDS011;40371;49.414;11.010;2022-10-04T00:52:43;5.17;;;4.70;;
54460;SDS011;40371;49.414;11.010;2022-10-04T00:55:22;6.77;;;4.83;;
54460;SDS011;40371;49.414;11.010;2022-10-04T00:58:00;9.10;;;5.37;;
54460;SDS011;40371;49.414;11.010;2022-10-04T01:00:31;5.30;;;4.80;;
54460;SDS011;40371;49.414;11.010;2022-10-04T01:03:00;7.83;;;4.93;;
54460;SDS011;40371;49.414;11.010;2022-10-04T01:05:39;5.83;;;5.10;;
54460;SDS011;40371;49.414;11.010;2022-10-04T01:08:10;6.57;;;4.60;;
54460;SDS011;40371;49.414;11.010;2022-10-04T01:13:22;7.20;;;4.67;;
54460;SDS011;40371;49.414;11.010;2022-10-04T01:15:56;7.83;;;4.63;;
54460;SDS011;40371;49.414;11.010;2022-10-04T01:20:57;5.33;;;4.23;;
54460;SDS011;40371;49.414;11.010;2022-10-04T01:28:57;5.73;;;4.37;;
54460;SDS011;40371;49.414;11.010;2022-10-04T01:31:26;4.77;;;4.13;;
54460;SDS011;40371;49.414;11.010;2022-10-04T01:33:56;6.17;;;4.20;;
54460;SDS011;40371;49.414;11.010;2022-10-04T01:36:23;3.93;;;3.63;;
54460;SDS011;40371;49.414;11.010;2022-10-04T01:38:49;5.13;;;4.03;;
54460;SDS011;40371;49.414;11.010;2022-10-04T01:41:16;4.97;;;3.93;;
54460;SDS011;40371;49.414;11.010;2022-10-04T01:43:45;4.37;;;3.97;;
54460;SDS011;40371;49.414;11.010;2022-10-04T01:46:16;5.03;;;4.47;;
54460;SDS011;40371;49.414;11.010;2022-10-04T01:48:49;8.93;;;4.10;;
54460;SDS011;40371;49.414;11.010;2022-10-04T01:51:20;5.50;;;4.50;;
54460;SDS011;40371;49.414;11.010;2022-10-04T01:54:06;8.37;;;3.77;;
54460;SDS011;40371;49.414;11.010;2022-10-04T01:59:44;5.53;;;4.10;;
54460;SDS011;40371;49.414;11.010;2022-10-04T02:02:17;4.60;;;4.27;;
54460;SDS011;40371;49.414;11.010;2022-10-04T02:05:04;4.87;;;4.03;;
54460;SDS011;40371;49.414;11.010;2022-10-04T02:07:34;7.00;;;3.70;;
54460;SDS011;40371;49.414;11.010;2022-10-04T02:10:04;4.57;;;4.13;;
54460;SDS011;40371;49.414;11.010;2022-10-04T02:12:34;4.80;;;3.97;;
54460;SDS011;40371;49.414;11.010;2022-10-04T02:15:03;4.10;;;3.70;;
54460;SDS011;40371;49.414;11.010;2022-10-04T02:17:32;5.40;;;4.27;;
54460;SDS011;40371;49.414;11.010;2022-10-04T02:20:07;5.53;;;4.10;;
54460;SDS011;40371;49.414;11.010;2022-10-04T02:22:37;4.37;;;3.47;;
54460;SDS011;40371;49.414;11.010;2022-10-04T02:25:03;5.67;;;3.90;;
54460;SDS011;40371;49.414;11.010;2022-10-04T02:27:29;5.40;;;4.20;;
54460;SDS011;40371;49.414;11.010;2022-10-04T02:29:59;6.47;;;3.90;;
54460;SDS011;40371;49.414;11.010;2022-10-04T02:32:30;6.87;;;3.67;;
54460;SDS011;40371;49.414;11.010;2022-10-04T02:35:16;4.20;;;3.30;;
54460;SDS011;40371;49.414;11.010;2022-10-04T02:37:42;3.67;;;3.37;;
54460;SDS011;40371;49.414;11.010;2022-10-04T02:40:09;4.07;;;3.63;;
54460;SDS011;40371;49.414;11.010;2022-10-04T02:45:18;3.87;;;3.53;;
54460;SDS011;40371;49.414;11.010;2022-10-04T02:47:56;4.30;;;3.90;;
54460;SDS011;40371;49.414;11.010;2022-10-04T02:53:33;6.10;;;3.90;;
54460;SDS011;40371;49.414;11.010;2022-10-04T02:56:10;4.37;;;3.73;;
54460;SDS011;40371;49.414;11.010;2022-10-04T02:58:37;4.40;;;4.00;;
54460;SDS011;40371;49.414;11.010;2022-10-04T03:01:05;4.43;;;4.03;;
54460;SDS011;40371;49.414;11.010;2022-10-04T03:03:45;3.73;;;3.43;;
54460;SDS011;40371;49.414;11.010;2022-10-04T03:06:16;6.10;;;3.83;;
54460;SDS011;40371;49.414;11.010;2022-10-04T03:11:18;16.13;;;11.00;;
54460;SDS011;40371;49.414;11.010;2022-10-04T03:13:48;18.93;;;14.47;;
54460;SDS011;40371;49.414;11.010;2022-10-04T03:16:17;4.70;;;4.27;;
54460;SDS011;40371;49.414;11.010;2022-10-04T03:18:43;6.27;;;4.07;;
54460;SDS011;40371;49.414;11.010;2022-10-04T03:21:11;4.10;;;3.70;;
54460;SDS011;40371;49.414;11.010;2022-10-04T03:23:38;3.83;;;3.20;;
54460;SDS011;40371;49.414;11.010;2022-10-04T03:26:16;5.97;;;3.57;;
54460;SDS011;40371;49.414;11.010;2022-10-04T03:28:43;3.53;;;3.23;;
54460;SDS011;40371;49.414;11.010;2022-10-04T03:31:10;4.37;;;3.53;;
54460;SDS011;40371;49.414;11.010;2022-10-04T03:33:38;3.53;;;3.23;;
54460;SDS011;40371;49.414;11.010;2022-10-04T03:36:04;4.13;;;3.30;;
54460;SDS011;40371;49.414;11.010;2022-10-04T03:38:31;4.10;;;3.70;;
54460;SDS011;40371;49.414;11.010;2022-10-04T03:41:00;3.43;;;3.23;;
54460;SDS011;40371;49.414;11.010;2022-10-04T03:43:30;3.00;;;2.80;;
54460;SDS011;40371;49.414;11.010;2022-10-04T03:45:58;3.53;;;3.23;;
54460;SDS011;40371;49.414;11.010;2022-10-04T03:48:36;5.60;;;3.30;;
54460;SDS011;40371;49.414;11.010;2022-10-04T03:51:21;3.03;;;2.83;;
54460;SDS011;40371;49.414;11.010;2022-10-04T03:53:55;3.83;;;3.53;;
54460;SDS011;40371;49.414;11.010;2022-10-04T03:58:56;5.10;;;3.20;;
54460;SDS011;40371;49.414;11.010;2022-10-04T04:06:36;3.30;;;3.10;;
54460;SDS011;40371;49.414;11.010;2022-10-04T04:09:08;3.10;;;2.80;;
54460;SDS011;40371;49.414;11.010;2022-10-04T04:11:52;3.37;;;3.10;;
54460;SDS011;40371;49.414;11.010;2022-10-04T04:14:25;3.43;;;3.00;;
54460;SDS011;40371;49.414;11.010;2022-10-04T04:16:52;4.33;;;2.97;;
54460;SDS011;40371;49.414;11.010;2022-10-04T04:19:39;3.73;;;2.80;;
54460;SDS011;40371;49.414;11.010;2022-10-04T04:22:08;4.07;;;3.10;;
54460;SDS011;40371;49.414;11.010;2022-10-04T04:24:42;3.50;;;3.20;;
54460;SDS011;40371;49.414;11.010;2022-10-04T04:27:10;3.57;;;3.10;;
54460;SDS011;40371;49.414;11.010;2022-10-04T04:30:11;3.90;;;2.90;;
54460;SDS011;40371;49.414;11.010;2022-10-04T04:32:31;3.60;;;3.30;;
54460;SDS011;40371;49.414;11.010;2022-10-04T04:35:03;3.60;;;3.30;;
54460;SDS011;40371;49.414;11.010;2022-10-04T04:37:33;8.07;;;3.00;;
54460;SDS011;40371;49.414;11.010;2022-10-04T04:40:10;4.30;;;3.90;;
54460;SDS011;40371;49.414;11.010;2022-10-04T04:42:47;3.73;;;3.33;;
54460;SDS011;40371;49.414;11.010;2022-10-04T04:47:42;3.27;;;2.97;;
54460;SDS011;40371;49.414;11.010;2022-10-04T04:52:35;3.57;;;3.27;;
54460;SDS011;40371;49.414;11.010;2022-10-04T04:55:01;3.27;;;3.03;;
54460;SDS011;40371;49.414;11.010;2022-10-04T04:57:28;3.47;;;3.17;;
54460;SDS011;40371;49.414;11.010;2022-10-04T04:59:56;3.27;;;2.93;;
54460;SDS011;40371;49.414;11.010;2022-10-04T05:02:32;3.20;;;3.00;;
54460;SDS011;40371;49.414;11.010;2022-10-04T05:05:09;3.30;;;3.00;;
54460;SDS011;40371;49.414;11.010;2022-10-04T05:07:42;5.03;;;4.23;;
54460;SDS011;40371;49.414;11.010;2022-10-04T05:10:18;5.83;;;5.23;;
54460;SDS011;40371;49.414;11.010;2022-10-04T05:12:45;5.80;;;4.60;;
54460;SDS011;40371;49.414;11.010;2022-10-04T05:15:12;3.40;;;3.10;;
54460;SDS011;40371;49.414;11.010;2022-10-04T05:17:37;3.40;;;3.00;;
54460;SDS011;40371;49.414;11.010;2022-10-04T05:20:03;3.57;;;3.13;;
54460;SDS011;40371;49.414;11.010;2022-10-04T05:22:30;3.50;;;3.20;;
54460;SDS011;40371;49.414;11.010;2022-10-04T05:24:57;3.63;;;3.20;;
54460;SDS011;40371;49.414;11.010;2022-10-04T05:27:34;3.40;;;3.10;;
54460;SDS011;40371;49.414;11.010;2022-10-04T05:33:00;6.30;;;3.33;;
54460;SDS011;40371;49.414;11.010;2022-10-04T05:35:37;6.43;;;3.67;;
54460;SDS011;40371;49.414;11.010;2022-10-04T05:38:21;4.33;;;4.00;;
54460;SDS011;40371;49.414;11.010;2022-10-04T05:41:04;4.87;;;3.70;;
54460;SDS011;40371;49.414;11.010;2022-10-04T05:43:48;3.60;;;3.30;;
54460;SDS011;40371;49.414;11.010;2022-10-04T05:46:27;3.80;;;3.27;;
54460;SDS011;40371;49.414;11.010;2022-10-04T05:49:06;3.67;;;2.93;;
54460;SDS011;40371;49.414;11.010;2022-10-04T05:51:55;5.10;;;3.63;;
54460;SDS011;40371;49.414;11.010;2022-10-04T05:54:29;3.70;;;3.40;;
54460;SDS011;40371;49.414;11.010;2022-10-04T06:00:09;3.53;;;3.03;;
54460;SDS011;40371;49.414;11.010;2022-10-04T06:05:38;4.00;;;3.70;;
54460;SDS011;40371;49.414;11.010;2022-10-04T06:13:46;3.90;;;3.50;;
54460;SDS011;40371;49.414;11.010;2022-10-04T06:16:37;4.53;;;3.57;;
54460;SDS011;40371;49.414;11.010;2022-10-04T06:19:24;3.77;;;3.43;;
54460;SDS011;40371;49.414;11.010;2022-10-04T06:22:15;3.67;;;3.37;;
54460;SDS011;40371;49.414;11.010;2022-10-04T06:24:49;3.40;;;2.93;;
54460;SDS011;40371;49.414;11.010;2022-10-04T06:30:05;3.50;;;3.20;;
54460;SDS011;40371;49.414;11.010;2022-10-04T06:33:11;4.20;;;2.87;;
54460;SDS011;40371;49.414;11.010;2022-10-04T06:35:50;5.17;;;3.40;;
54460;SDS011;40371;49.414;11.010;2022-10-04T06:38:41;3.77;;;3.47;;
54460;SDS011;40371;49.414;11.010;2022-10-04T06:44:18;4.60;;;3.57;;
54460;SDS011;40371;49.414;11.010;2022-10-04T06:49:55;4.70;;;3.97;;
54460;SDS011;40371;49.414;11.010;2022-10-04T07:03:47;3.77;;;3.30;;
54460;SDS011;40371;49.414;11.010;2022-10-04T07:06:40;4.20;;;3.80;;
54460;SDS011;40371;49.414;11.010;2022-10-04T07:13:12;5.00;;;3.10;;
54460;SDS011;40371;49.414;11.010;2022-10-04T07:18:26;3.33;;;3.13;;
54460;SDS011;40371;49.414;11.010;2022-10-04T07:21:01;4.73;;;3.53;;
54460;SDS011;40371;49.414;11.010;2022-10-04T07:29:11;4.80;;;3.83;;
54460;SDS011;40371;49.414;11.010;2022-10-04T07:37:28;6.50;;;4.07;;
54460;SDS011;40371;49.414;11.010;2022-10-04T07:40:17;6.10;;;5.00;;
54460;SDS011;40371;49.414;11.010;2022-10-04T07:43:04;4.43;;;3.73;;
54460;SDS011;40371;49.414;11.010;2022-10-04T07:45:34;6.27;;;3.57;;
54460;SDS011;40371;49.414;11.010;2022-10-04T07:48:07;5.77;;;2.93;;
54460;SDS011;40371;49.414;11.010;2022-10-04T07:50:35;6.13;;;3.10;;
54460;SDS011;40371;49.414;11.010;2022-10-04T08:01:06;4.00;;;3.47;;
54460;SDS011;40371;49.414;11.010;2022-10-04T08:04:04;6.73;;;3.53;;
54460;SDS011;40371;49.414;11.010;2022-10-04T08:15:28;4.13;;;3.73;;
54460;SDS011;40371;49.414;11.010;2022-10-04T08:20:49;3.40;;;3.10;;
54460;SDS011;40371;49.414;11.010;2022-10-04T08:32:08;4.87;;;3.27;;
54460;SDS011;40371;49.414;11.010;2022-10-04T08:37:48;4.57;;;3.53;;
54460;SDS011;40371;49.414;11.010;2022-10-04T09:06:41;4.27;;;3.60;;
54460;SDS011;40371;49.414;11.010;2022-10-04T09:20:42;5.77;;;3.07;;
54460;SDS011;40371;49.414;11.010;2022-10-04T09:26:21;7.57;;;3.43;;
54460;SDS011;40371;49.414;11.010;2022-10-04T09:29:01;7.03;;;2.80;;
54460;SDS011;40371;49.414;11.010;2022-10-04T09:37:48;6.57;;;3.47;;
54460;SDS011;40371;49.414;11.010;2022-10-04T09:48:40;9.83;;;8.83;;
54460;SDS011;40371;49.414;11.010;2022-10-04T10:10:59;5.23;;;4.50;;
54460;SDS011;40371;49.414;11.010;2022-10-04T10:25:11;6.93;;;3.03;;
54460;SDS011;40371;49.414;11.010;2022-10-04T10:28:21;2.13;;;1.60;;
54460;SDS011;40371;49.414;11.010;2022-10-04T10:34:05;12.57;;;11.20;;
54460;SDS011;40371;49.414;11.010;2022-10-04T10:39:47;6.65;;;3.58;;
54460;SDS011;40371;49.414;11.010;2022-10-04T10:46:13;3.70;;;2.30;;
54460;SDS011;40371;49.414;11.010;2022-10-04T10:51:14;3.50;;;2.20;;
54460;SDS011;40371;49.414;11.010;2022-10-04T10:56:58;3.33;;;1.48;;
54460;SDS011;40371;49.414;11.010;2022-10-04T10:59:58;1.63;;;1.48;;
54460;SDS011;40371;49.414;11.010;2022-10-04T11:03:03;2.10;;;1.50;;
54460;SDS011;40371;49.414;11.010;2022-10-04T11:08:33;3.10;;;2.33;;
54460;SDS011;40371;49.414;11.010;2022-10-04T11:17:14;2.55;;;1.65;;
54460;SDS011;40371;49.414;11.010;2022-10-04T11:28:08;4.15;;;3.75;;
54460;SDS011;40371;49.414;11.010;2022-10-04T11:33:28;4.57;;;2.55;;
54460;SDS011;40371;49.414;11.010;2022-10-04T11:36:28;1.90;;;1.40;;
54460;SDS011;40371;49.414;11.010;2022-10-04T11:42:04;2.43;;;1.63;;
54460;SDS011;40371;49.414;11.010;2022-10-04T11:47:57;25.10;;;22.77;;
54460;SDS011;40371;49.414;11.010;2022-10-04T11:56:03;3.10;;;1.97;;
54460;SDS011;40371;49.414;11.010;2022-10-04T12:10:10;4.07;;;1.80;;
54460;SDS011;40371;49.414;11.010;2022-10-04T12:23:51;2.93;;;1.33;;
54460;SDS011;40371;49.414;11.010;2022-10-04T12:33:11;3.77;;;1.40;;
54460;SDS011;40371;49.414;11.010;2022-10-04T12:35:42;3.43;;;1.43;;
54460;SDS011;40371;49.414;11.010;2022-10-04T12:50:10;3.23;;;1.40;;
54460;SDS011;40371;49.414;11.010;2022-10-04T12:53:01;3.30;;;1.60;;
54460;SDS011;40371;49.414;11.010;2022-10-04T13:09:02;2.13;;;1.37;;
54460;SDS011;40371;49.414;11.010;2022-10-04T13:17:37;3.03;;;1.50;;
54460;SDS011;40371;49.414;11.010;2022-10-04T13:23:00;3.57;;;1.97;;
54460;SDS011;40371;49.414;11.010;2022-10-04T13:25:53;3.87;;;1.43;;
54460;SDS011;40371;49.414;11.010;2022-10-04T13:28:27;1.83;;;1.40;;
54460;SDS011;40371;49.414;11.010;2022-10-04T13:42:10;4.67;;;2.17;;
54460;SDS011;40371;49.414;11.010;2022-10-04T13:45:01;4.03;;;1.47;;
54460;SDS011;40371;49.414;11.010;2022-10-04T13:56:38;3.47;;;2.07;;
54460;SDS011;40371;49.414;11.010;2022-10-04T14:02:07;2.27;;;1.17;;
54460;SDS011;40371;49.414;11.010;2022-10-04T14:16:43;2.83;;;1.37;;
54460;SDS011;40371;49.414;11.010;2022-10-04T14:33:04;3.87;;;2.37;;
54460;SDS011;40371;49.414;11.010;2022-10-04T14:36:01;3.30;;;2.13;;
54460;SDS011;40371;49.414;11.010;2022-10-04T14:49:51;3.37;;;2.30;;
54460;SDS011;40371;49.414;11.010;2022-10-04T14:52:46;3.97;;;2.37;;
54460;SDS011;40371;49.414;11.010;2022-10-04T15:01:04;3.43;;;1.20;;
54460;SDS011;40371;49.414;11.010;2022-10-04T15:06:43;2.97;;;1.50;;
54460;SDS011;40371;49.414;11.010;2022-10-04T15:17:41;4.00;;;1.63;;
54460;SDS011;40371;49.414;11.010;2022-10-04T15:22:55;4.47;;;4.07;;
54460;SDS011;40371;49.414;11.010;2022-10-04T15:25:41;4.03;;;0.93;;
54460;SDS011;40371;49.414;11.010;2022-10-04T15:34:18;3.70;;;1.50;;
54460;SDS011;40371;49.414;11.010;2022-10-04T15:42:09;3.17;;;1.70;;
54460;SDS011;40371;49.414;11.010;2022-10-04T15:44:45;5.70;;;1.70;;
54460;SDS011;40371;49.414;11.010;2022-10-04T15:47:51;5.93;;;1.27;;
54460;SDS011;40371;49.414;11.010;2022-10-04T15:50:53;6.63;;;1.23;;
54460;SDS011;40371;49.414;11.010;2022-10-04T15:53:43;3.47;;;1.43;;
54460;SDS011;40371;49.414;11.010;2022-10-04T15:56:45;2.43;;;1.53;;
54460;SDS011;40371;49.414;11.010;2022-10-04T16:04:40;3.87;;;1.90;;
54460;SDS011;40371;49.414;11.010;2022-10-04T16:15:38;2.30;;;1.60;;
54460;SDS011;40371;49.414;11.010;2022-10-04T16:25:58;3.60;;;2.00;;
54460;SDS011;40371;49.414;11.010;2022-10-04T16:31:44;2.10;;;1.90;;
54460;SDS011;40371;49.414;11.010;2022-10-04T16:39:38;3.37;;;1.93;;
54460;SDS011;40371;49.414;11.010;2022-10-04T16:42:29;6.53;;;2.77;;
54460;SDS011;40371;49.414;11.010;2022-10-04T16:45:23;7.27;;;3.80;;
54460;SDS011;40371;49.414;11.010;2022-10-04T16:48:01;3.63;;;2.80;;
54460;SDS011;40371;49.414;11.010;2022-10-04T16:58:56;2.57;;;2.37;;
54460;SDS011;40371;49.414;11.010;2022-10-04T17:17:56;3.40;;;2.30;;
54460;SDS011;40371;49.414;11.010;2022-10-04T17:36:55;3.90;;;2.77;;
54460;SDS011;40371;49.414;11.010;2022-10-04T17:39:53;5.00;;;3.30;;
54460;SDS011;40371;49.414;11.010;2022-10-04T17:48:17;6.20;;;4.57;;
54460;SDS011;40371;49.414;11.010;2022-10-04T17:54:11;7.37;;;6.57;;
54460;SDS011;40371;49.414;11.010;2022-10-04T17:59:28;29.33;;;23.53;;
54460;SDS011;40371;49.414;11.010;2022-10-04T18:02:02;10.37;;;6.57;;
54460;SDS011;40371;49.414;11.010;2022-10-04T18:04:35;5.47;;;4.20;;
54460;SDS011;40371;49.414;11.010;2022-10-04T18:07:14;7.53;;;4.03;;
54460;SDS011;40371;49.414;11.010;2022-10-04T18:10:17;8.17;;;4.23;;
54460;SDS011;40371;49.414;11.010;2022-10-04T18:15:21;8.07;;;5.60;;
54460;SDS011;40371;49.414;11.010;2022-10-04T18:17:50;10.90;;;5.93;;
54460;SDS011;40371;49.414;11.010;2022-10-04T18:23:18;8.20;;;6.57;;
54460;SDS011;40371;49.414;11.010;2022-10-04T18:25:52;9.90;;;5.93;;
54460;SDS011;40371;49.414;11.010;2022-10-04T18:28:21;5.23;;;4.73;;
54460;SDS011;40371;49.414;11.010;2022-10-04T18:33:55;7.07;;;4.33;;
54460;SDS011;40371;49.414;11.010;2022-10-04T18:36:05;12.30;;;4.73;;
54460;SDS011;40371;49.414;11.010;2022-10-04T18:38:42;7.30;;;4.10;;
54460;SDS011;40371;49.414;11.010;2022-10-04T18:41:18;7.33;;;4.63;;
54460;SDS011;40371;49.414;11.010;2022-10-04T18:46:16;9.47;;;4.70;;
54460;SDS011;40371;49.414;11.010;2022-10-04T18:48:53;6.33;;;4.57;;
54460;SDS011;40371;49.414;11.010;2022-10-04T18:51:32;4.83;;;4.37;;
54460;SDS011;40371;49.414;11.010;2022-10-04T19:02:47;5.90;;;4.20;;
54460;SDS011;40371;49.414;11.010;2022-10-04T19:06:06;6.10;;;4.03;;
54460;SDS011;40371;49.414;11.010;2022-10-04T19:10:41;9.03;;;4.73;;
54460;SDS011;40371;49.414;11.010;2022-10-04T19:13:21;7.53;;;4.50;;
54460;SDS011;40371;49.414;11.010;2022-10-04T19:21:22;7.77;;;4.13;;
54460;SDS011;40371;49.414;11.010;2022-10-04T19:24:39;5.43;;;4.70;;
54460;SDS011;40371;49.414;11.010;2022-10-04T19:37:36;7.10;;;4.37;;
54460;SDS011;40371;49.414;11.010;2022-10-04T19:43:09;6.70;;;4.60;;
54460;SDS011;40371;49.414;11.010;2022-10-04T19:48:22;6.83;;;4.90;;
54460;SDS011;40371;49.414;11.010;2022-10-04T19:50:52;6.00;;;4.93;;
54460;SDS011;40371;49.414;11.010;2022-10-04T19:53:45;9.17;;;5.10;;
54460;SDS011;40371;49.414;11.010;2022-10-04T19:58:43;6.40;;;5.43;;
54460;SDS011;40371;49.414;11.010;2022-10-04T20:01:17;10.90;;;5.67;;
54460;SDS011;40371;49.414;11.010;2022-10-04T20:03:48;8.63;;;6.70;;
54460;SDS011;40371;49.414;11.010;2022-10-04T20:06:34;12.13;;;7.17;;
54460;SDS011;40371;49.414;11.010;2022-10-04T20:11:47;8.37;;;7.27;;
54460;SDS011;40371;49.414;11.010;2022-10-04T20:27:01;11.30;;;7.50;;
54460;SDS011;40371;49.414;11.010;2022-10-04T20:30:18;10.43;;;6.70;;
54460;SDS011;40371;49.414;11.010;2022-10-04T20:34:58;12.67;;;7.70;;
54460;SDS011;40371;49.414;11.010;2022-10-04T20:43:22;13.00;;;7.57;;
54460;SDS011;40371;49.414;11.010;2022-10-04T20:45:40;9.47;;;8.03;;
54460;SDS011;40371;49.414;11.010;2022-10-04T20:48:19;12.37;;;8.60;;
54460;SDS011;40371;49.414;11.010;2022-10-04T20:50:47;9.13;;;8.23;;
54460;SDS011;40371;49.414;11.010;2022-10-04T20:56:07;9.93;;;8.93;;
54460;SDS011;40371;49.414;11.010;2022-10-04T20:58:35;12.03;;;8.20;;
54460;SDS011;40371;49.414;11.010;2022-10-04T21:01:03;10.63;;;7.67;;
54460;SDS011;40371;49.414;11.010;2022-10-04T21:03:50;9.43;;;6.53;;
54460;SDS011;40371;49.414;11.010;2022-10-04T21:06:15;8.80;;;7.03;;
54460;SDS011;40371;49.414;11.010;2022-10-04T21:08:41;12.70;;;7.47;;
54460;SDS011;40371;49.414;11.010;2022-10-04T21:11:15;10.53;;;6.87;;
54460;SDS011;40371;49.414;11.010;2022-10-04T21:13:52;13.07;;;8.83;;
54460;SDS011;40371;49.414;11.010;2022-10-04T21:16:36;9.53;;;7.97;;
54460;SDS011;40371;49.414;11.010;2022-10-04T21:30:04;8.30;;;7.07;;
54460;SDS011;40371;49.414;11.010;2022-10-04T21:32:34;7.33;;;6.63;;
54460;SDS011;40371;49.414;11.010;2022-10-04T21:35:01;12.77;;;9.03;;
54460;SDS011;40371;49.414;11.010;2022-10-04T21:37:28;7.60;;;6.63;;
54460;SDS011;40371;49.414;11.010;2022-10-04T21:39:54;7.90;;;5.70;;
54460;SDS011;40371;49.414;11.010;2022-10-04T21:42:20;10.20;;;6.00;;
54460;SDS011;40371;49.414;11.010;2022-10-04T21:44:46;7.50;;;6.37;;
54460;SDS011;40371;49.414;11.010;2022-10-04T21:47:12;6.90;;;6.20;;
54460;SDS011;40371;49.414;11.010;2022-10-04T21:49:37;6.50;;;5.83;;
54460;SDS011;40371;49.414;11.010;2022-10-04T21:52:03;6.77;;;5.97;;
54460;SDS011;40371;49.414;11.010;2022-10-04T21:54:29;10.30;;;6.40;;
54460;SDS011;40371;49.414;11.010;2022-10-04T21:56:55;7.43;;;5.80;;
54460;SDS011;40371;49.414;11.010;2022-10-04T21:59:21;9.10;;;6.33;;
54460;SDS011;40371;49.414;11.010;2022-10-04T22:01:46;9.17;;;6.90;;
54460;SDS011;40371;49.414;11.010;2022-10-04T22:04:12;7.10;;;6.13;;
54460;SDS011;40371;49.414;11.010;2022-10-04T22:06:38;6.03;;;5.40;;
54460;SDS011;40371;49.414;11.010;2022-10-04T22:09:04;12.20;;;6.00;;
54460;SDS011;40371;49.414;11.010;2022-10-04T22:11:30;8.53;;;5.73;;
54460;SDS011;40371;49.414;11.010;2022-10-04T22:13:55;6.40;;;5.80;;
54460;SDS011;40371;49.414;11.010;2022-10-04T22:16:21;11.10;;;6.13;;
54460;SDS011;40371;49.414;11.010;2022-10-04T22:18:46;8.00;;;5.50;;
54460;SDS011;40371;49.414;11.010;2022-10-04T22:21:12;6.40;;;5.80;;
54460;SDS011;40371;49.414;11.010;2022-10-04T22:23:39;7.60;;;5.83;;
54460;SDS011;40371;49.414;11.010;2022-10-04T22:26:13;9.60;;;5.80;;
54460;SDS011;40371;49.414;11.010;2022-10-04T22:28:45;6.57;;;5.23;;
54460;SDS011;40371;49.414;11.010;2022-10-04T22:31:16;6.93;;;5.63;;
54460;SDS011;40371;49.414;11.010;2022-10-04T22:33:44;6.13;;;5.53;;
54460;SDS011;40371;49.414;11.010;2022-10-04T22:36:17;10.67;;;5.77;;
54460;SDS011;40371;49.414;11.010;2022-10-04T22:38:44;8.37;;;6.07;;
54460;SDS011;40371;49.414;11.010;2022-10-04T22:41:21;5.83;;;4.90;;
54460;SDS011;40371;49.414;11.010;2022-10-04T22:43:50;6.03;;;5.27;;
54460;SDS011;40371;49.414;11.010;2022-10-04T22:46:17;7.73;;;5.30;;
54460;SDS011;40371;49.414;11.010;2022-10-04T22:48:44;7.60;;;5.57;;
54460;SDS011;40371;49.414;11.010;2022-10-04T22:51:12;6.30;;;4.97;;
54460;SDS011;40371;49.414;11.010;2022-10-04T22:53:42;6.07;;;5.10;;
54460;SDS011;40371;49.414;11.010;2022-10-04T22:56:12;5.20;;;4.67;;
54460;SDS011;40371;49.414;11.010;2022-10-04T22:58:39;6.17;;;5.50;;
54460;SDS011;40371;49.414;11.010;2022-10-04T23:01:15;5.87;;;4.90;;
54460;SDS011;40371;49.414;11.010;2022-10-04T23:03:46;5.87;;;5.07;;
54460;SDS011;40371;49.414;11.010;2022-10-04T23:06:12;5.70;;;5.17;;
54460;SDS011;40371;49.414;11.010;2022-10-04T23:08:42;9.20;;;5.30;;
54460;SDS011;40371;49.414;11.010;2022-10-04T23:11:08;7.37;;;5.00;;
54460;SDS011;40371;49.414;11.010;2022-10-04T23:13:34;10.37;;;5.60;;
54460;SDS011;40371;49.414;11.010;2022-10-04T23:16:16;6.03;;;5.47;;
54460;SDS011;40371;49.414;11.010;2022-10-04T23:18:46;9.77;;;5.30;;
54460;SDS011;40371;49.414;11.010;2022-10-04T23:21:22;11.17;;;5.30;;
54460;SDS011;40371;49.414;11.010;2022-10-04T23:23:49;5.80;;;4.70;;
54460;SDS011;40371;49.414;11.010;2022-10-04T23:26:23;7.73;;;4.90;;
54460;SDS011;40371;49.414;11.010;2022-10-04T23:28:55;7.43;;;5.10;;
54460;SDS011;40371;49.414;11.010;2022-10-04T23:31:23;6.20;;;5.00;;
54460;SDS011;40371;49.414;11.010;2022-10-04T23:33:50;5.83;;;4.60;;
54460;SDS011;40371;49.414;11.010;2022-10-04T23:36:19;10.10;;;4.90;;
54460;SDS011;40371;49.414;11.010;2022-10-04T23:38:49;6.73;;;5.03;;
54460;SDS011;40371;49.414;11.010;2022-10-04T23:41:20;8.73;;;4.80;;
54460;SDS011;40371;49.414;11.010;2022-10-04T23:43:46;14.60;;;11.83;;
54460;SDS011;40371;49.414;11.010;2022-10-04T23:46:17;109.93;;;88.23;;
54460;SDS011;40371;49.414;11.010;2022-10-04T23:48:45;78.37;;;62.73;;
54460;SDS011;40371;49.414;11.010;2022-10-04T23:51:12;42.60;;;32.57;;
54460;SDS011;40371;49.414;11.010;2022-10-04T23:53:40;5.57;;;5.00;;
54460;SDS011;40371;49.414;11.010;2022-10-04T23:56:11;6.23;;;4.73;;
54460;SDS011;40371;49.414;11.010;2022-10-04T23:58:47;8.20;;;4.50;;
